sensor_id;sensor_type;location;lat;lon;timestamp;pressure;altitude;pressure_sealevel;temperature;humidity
79663;BME280;69130;48.724;8.982;2023-07-02T00:02:16;95995.97;;;15.63;100.00
79663;BME280;69130;48.724;8.982;2023-07-02T00:04:42;95990.81;;;15.61;100.00
79663;BME280;69130;48.724;8.982;2023-07-02T00:07:08;95995.19;;;15.53;100.00
79663;BME280;69130;48.724;8.982;2023-07-02T00:09:33;95995.31;;;15.51;100.00
79663;BME280;69130;48.724;8.982;2023-07-02T00:11:59;95991.97;;;15.49;100.00
79663;BME280;69130;48.724;8.982;2023-07-02T00:14:24;95997.75;;;15.45;100.00
79663;BME280;69130;48.724;8.982;2023-07-02T00:16:49;95988.59;;;15.47;100.00
79663;BME280;69130;48.724;8.982;2023-07-02T00:19:15;95996.75;;;15.46;100.00
79663;BME280;69130;48.724;8.982;2023-07-02T00:21:41;96003.91;;;15.45;100.00
79663;BME280;69130;48.724;8.982;2023-07-02T00:24:07;96006.31;;;15.48;100.00
79663;BME280;69130;48.724;8.982;2023-07-02T00:26:35;95999.13;;;15.49;100.00
79663;BME280;69130;48.724;8.982;2023-07-02T00:29:00;96002.94;;;15.46;100.00
79663;BME280;69130;48.724;8.982;2023-07-02T00:31:26;95998.31;;;15.48;100.00
79663;BME280;69130;48.724;8.982;2023-07-02T00:33:51;95996.59;;;15.47;100.00
79663;BME280;69130;48.724;8.982;2023-07-02T00:36:16;95992.66;;;15.51;100.00
79663;BME280;69130;48.724;8.982;2023-07-02T00:38:44;95992.81;;;15.40;100.00
79663;BME280;69130;48.724;8.982;2023-07-02T00:41:09;95992.53;;;15.43;100.00
79663;BME280;69130;48.724;8.982;2023-07-02T00:43:35;95997.31;;;15.40;100.00
79663;BME280;69130;48.724;8.982;2023-07-02T00:46:01;95993.53;;;15.42;100.00
79663;BME280;69130;48.724;8.982;2023-07-02T00:48:28;95995.22;;;15.43;100.00
79663;BME280;69130;48.724;8.982;2023-07-02T00:50:53;95997.44;;;15.48;100.00
79663;BME280;69130;48.724;8.982;2023-07-02T00:53:21;95996.34;;;15.41;100.00
79663;BME280;69130;48.724;8.982;2023-07-02T00:55:46;95998.56;;;15.45;100.00
79663;BME280;69130;48.724;8.982;2023-07-02T00:58:12;95994.06;;;15.55;100.00
79663;BME280;69130;48.724;8.982;2023-07-02T01:00:45;95996.03;;;15.53;100.00
79663;BME280;69130;48.724;8.982;2023-07-02T01:03:11;95995.19;;;15.53;100.00
79663;BME280;69130;48.724;8.982;2023-07-02T01:05:36;96003.31;;;15.51;100.00
79663;BME280;69130;48.724;8.982;2023-07-02T01:08:06;96003.75;;;15.37;100.00
79663;BME280;69130;48.724;8.982;2023-07-02T01:10:32;96007.84;;;15.32;100.00
79663;BME280;69130;48.724;8.982;2023-07-02T01:13:02;96008.53;;;15.34;100.00
79663;BME280;69130;48.724;8.982;2023-07-02T01:15:31;96020.91;;;15.35;100.00
79663;BME280;69130;48.724;8.982;2023-07-02T01:17:57;96008.97;;;15.29;100.00
79663;BME280;69130;48.724;8.982;2023-07-02T01:20:24;96008.97;;;15.29;100.00
79663;BME280;69130;48.724;8.982;2023-07-02T01:22:52;96009.53;;;15.23;100.00
79663;BME280;69130;48.724;8.982;2023-07-02T01:25:21;96008.72;;;15.23;100.00
79663;BME280;69130;48.724;8.982;2023-07-02T01:27:50;95998.50;;;15.18;100.00
79663;BME280;69130;48.724;8.982;2023-07-02T01:30:16;95986.44;;;15.14;100.00
79663;BME280;69130;48.724;8.982;2023-07-02T01:32:42;95990.50;;;15.09;100.00
79663;BME280;69130;48.724;8.982;2023-07-02T01:35:08;95979.56;;;15.02;100.00
79663;BME280;69130;48.724;8.982;2023-07-02T01:37:33;95983.50;;;14.98;100.00
79663;BME280;69130;48.724;8.982;2023-07-02T01:40:03;95981.56;;;14.91;100.00
79663;BME280;69130;48.724;8.982;2023-07-02T01:42:31;95974.56;;;14.90;100.00
79663;BME280;69130;48.724;8.982;2023-07-02T01:44:57;95976.66;;;14.86;100.00
79663;BME280;69130;48.724;8.982;2023-07-02T01:47:22;95985.66;;;14.85;100.00
79663;BME280;69130;48.724;8.982;2023-07-02T01:49:50;95985.06;;;14.91;100.00
79663;BME280;69130;48.724;8.982;2023-07-02T01:52:16;95982.56;;;14.90;100.00
79663;BME280;69130;48.724;8.982;2023-07-02T01:54:42;95986.03;;;14.90;100.00
79663;BME280;69130;48.724;8.982;2023-07-02T01:57:08;95995.97;;;14.98;100.00
79663;BME280;69130;48.724;8.982;2023-07-02T01:59:34;96002.16;;;14.98;100.00
79663;BME280;69130;48.724;8.982;2023-07-02T02:02:00;96000.19;;;15.00;100.00
79663;BME280;69130;48.724;8.982;2023-07-02T02:04:25;95995.28;;;15.05;100.00
79663;BME280;69130;48.724;8.982;2023-07-02T02:06:51;95997.69;;;14.99;100.00
79663;BME280;69130;48.724;8.982;2023-07-02T02:09:17;95990.81;;;14.96;100.00
79663;BME280;69130;48.724;8.982;2023-07-02T02:11:44;95995.28;;;14.96;100.00
79663;BME280;69130;48.724;8.982;2023-07-02T02:14:10;95996.28;;;14.95;100.00
79663;BME280;69130;48.724;8.982;2023-07-02T02:16:36;95992.78;;;14.94;100.00
79663;BME280;69130;48.724;8.982;2023-07-02T02:19:02;96003.97;;;14.98;100.00
79663;BME280;69130;48.724;8.982;2023-07-02T02:21:28;95998.53;;;14.99;100.00
79663;BME280;69130;48.724;8.982;2023-07-02T02:23:53;95990.53;;;14.99;100.00
79663;BME280;69130;48.724;8.982;2023-07-02T02:26:18;96002.31;;;14.97;100.00
79663;BME280;69130;48.724;8.982;2023-07-02T02:28:47;96005.53;;;14.91;100.00
79663;BME280;69130;48.724;8.982;2023-07-02T02:31:13;95998.66;;;14.98;100.00
79663;BME280;69130;48.724;8.982;2023-07-02T02:33:38;96009.75;;;14.93;100.00
79663;BME280;69130;48.724;8.982;2023-07-02T02:36:04;96007.66;;;14.87;100.00
79663;BME280;69130;48.724;8.982;2023-07-02T02:38:29;96001.91;;;14.92;100.00
79663;BME280;69130;48.724;8.982;2023-07-02T02:40:55;96004.44;;;14.93;100.00
79663;BME280;69130;48.724;8.982;2023-07-02T02:43:20;95999.91;;;14.94;100.00
79663;BME280;69130;48.724;8.982;2023-07-02T02:45:46;96002.47;;;14.95;100.00
79663;BME280;69130;48.724;8.982;2023-07-02T02:48:12;96009.31;;;14.98;100.00
79663;BME280;69130;48.724;8.982;2023-07-02T02:50:37;96013.38;;;15.02;100.00
79663;BME280;69130;48.724;8.982;2023-07-02T02:53:07;96007.22;;;15.01;100.00
79663;BME280;69130;48.724;8.982;2023-07-02T02:55:32;96014.22;;;15.02;100.00
79663;BME280;69130;48.724;8.982;2023-07-02T02:57:58;96022.38;;;15.01;100.00
79663;BME280;69130;48.724;8.982;2023-07-02T03:00:23;96025.72;;;15.03;100.00
79663;BME280;69130;48.724;8.982;2023-07-02T03:02:48;96029.94;;;15.05;100.00
79663;BME280;69130;48.724;8.982;2023-07-02T03:05:14;96038.06;;;14.94;100.00
79663;BME280;69130;48.724;8.982;2023-07-02T03:07:41;96041.16;;;14.80;100.00
79663;BME280;69130;48.724;8.982;2023-07-02T03:10:07;96036.81;;;14.69;100.00
79663;BME280;69130;48.724;8.982;2023-07-02T03:12:33;96044.09;;;14.58;100.00
79663;BME280;69130;48.724;8.982;2023-07-02T03:14:58;96041.28;;;14.40;100.00
79663;BME280;69130;48.724;8.982;2023-07-02T03:17:24;96031.91;;;14.46;100.00
79663;BME280;69130;48.724;8.982;2023-07-02T03:19:49;96038.75;;;14.48;100.00
79663;BME280;69130;48.724;8.982;2023-07-02T03:22:15;96039.75;;;14.47;100.00
79663;BME280;69130;48.724;8.982;2023-07-02T03:24:41;96048.84;;;14.45;100.00
79663;BME280;69130;48.724;8.982;2023-07-02T03:27:06;96054.28;;;14.34;100.00
79663;BME280;69130;48.724;8.982;2023-07-02T03:29:34;96060.47;;;14.34;100.00
79663;BME280;69130;48.724;8.982;2023-07-02T03:32:00;96061.19;;;14.36;100.00
79663;BME280;69130;48.724;8.982;2023-07-02T03:34:27;96061.84;;;14.29;100.00
79663;BME280;69130;48.724;8.982;2023-07-02T03:36:53;96060.13;;;14.18;100.00
79663;BME280;69130;48.724;8.982;2023-07-02T03:39:26;96063.47;;;14.20;100.00
79663;BME280;69130;48.724;8.982;2023-07-02T03:41:52;96061.06;;;14.17;100.00
79663;BME280;69130;48.724;8.982;2023-07-02T03:44:20;96065.28;;;14.20;100.00
79663;BME280;69130;48.724;8.982;2023-07-02T03:46:45;96065.69;;;14.15;100.00
79663;BME280;69130;48.724;8.982;2023-07-02T03:49:14;96074.38;;;14.17;100.00
79663;BME280;69130;48.724;8.982;2023-07-02T03:51:39;96072.88;;;14.24;100.00
79663;BME280;69130;48.724;8.982;2023-07-02T03:54:08;96075.66;;;14.23;100.00
79663;BME280;69130;48.724;8.982;2023-07-02T03:56:35;96070.22;;;14.24;100.00
79663;BME280;69130;48.724;8.982;2023-07-02T03:59:01;96091.38;;;14.26;100.00
79663;BME280;69130;48.724;8.982;2023-07-02T04:01:26;96085.34;;;14.24;100.00
79663;BME280;69130;48.724;8.982;2023-07-02T04:03:52;96083.00;;;14.30;100.00
79663;BME280;69130;48.724;8.982;2023-07-02T04:06:18;96086.03;;;14.26;100.00
79663;BME280;69130;48.724;8.982;2023-07-02T04:08:44;96093.31;;;14.24;100.00
79663;BME280;69130;48.724;8.982;2023-07-02T04:11:11;96092.03;;;14.18;100.00
79663;BME280;69130;48.724;8.982;2023-07-02T04:13:36;96096.94;;;14.23;100.00
79663;BME280;69130;48.724;8.982;2023-07-02T04:16:05;96100.03;;;14.18;100.00
79663;BME280;69130;48.724;8.982;2023-07-02T04:18:31;96090.50;;;14.16;100.00
79663;BME280;69130;48.724;8.982;2023-07-02T04:21:01;96077.88;;;14.18;100.00
79663;BME280;69130;48.724;8.982;2023-07-02T04:23:26;96078.59;;;14.20;100.00
79663;BME280;69130;48.724;8.982;2023-07-02T04:25:52;96085.44;;;14.13;100.00
79663;BME280;69130;48.724;8.982;2023-07-02T04:28:20;96095.81;;;14.16;100.00
79663;BME280;69130;48.724;8.982;2023-07-02T04:30:45;96094.72;;;14.18;100.00
79663;BME280;69130;48.724;8.982;2023-07-02T04:33:15;96105.34;;;14.18;100.00
79663;BME280;69130;48.724;8.982;2023-07-02T04:35:42;96101.53;;;14.11;100.00
79663;BME280;69130;48.724;8.982;2023-07-02T04:38:08;96108.41;;;14.14;100.00
79663;BME280;69130;48.724;8.982;2023-07-02T04:40:39;96114.84;;;14.21;100.00
79663;BME280;69130;48.724;8.982;2023-07-02T04:43:06;96111.09;;;14.23;100.00
79663;BME280;69130;48.724;8.982;2023-07-02T04:45:32;96112.66;;;14.26;100.00
79663;BME280;69130;48.724;8.982;2023-07-02T04:48:05;96119.03;;;14.34;100.00
79663;BME280;69130;48.724;8.982;2023-07-02T04:50:31;96104.47;;;14.38;100.00
79663;BME280;69130;48.724;8.982;2023-07-02T04:52:56;96114.13;;;14.39;100.00
79663;BME280;69130;48.724;8.982;2023-07-02T04:55:21;96108.09;;;14.37;100.00
79663;BME280;69130;48.724;8.982;2023-07-02T04:57:47;96111.59;;;14.38;100.00
79663;BME280;69130;48.724;8.982;2023-07-02T05:00:13;96117.47;;;14.32;100.00
79663;BME280;69130;48.724;8.982;2023-07-02T05:02:39;96117.91;;;14.37;100.00
79663;BME280;69130;48.724;8.982;2023-07-02T05:05:06;96128.13;;;14.41;100.00
79663;BME280;69130;48.724;8.982;2023-07-02T05:07:31;96126.47;;;14.40;100.00
79663;BME280;69130;48.724;8.982;2023-07-02T05:09:57;96124.53;;;14.52;100.00
79663;BME280;69130;48.724;8.982;2023-07-02T05:12:25;96133.78;;;14.57;100.00
79663;BME280;69130;48.724;8.982;2023-07-02T05:14:50;96134.66;;;14.58;100.00
79663;BME280;69130;48.724;8.982;2023-07-02T05:17:16;96136.16;;;14.60;100.00
79663;BME280;69130;48.724;8.982;2023-07-02T05:19:45;96132.94;;;14.57;100.00
79663;BME280;69130;48.724;8.982;2023-07-02T05:22:10;96134.34;;;14.51;100.00
79663;BME280;69130;48.724;8.982;2023-07-02T05:24:36;96149.22;;;14.54;100.00
79663;BME280;69130;48.724;8.982;2023-07-02T05:27:01;96142.09;;;14.64;100.00
79663;BME280;69130;48.724;8.982;2023-07-02T05:29:27;96140.81;;;14.68;100.00
79663;BME280;69130;48.724;8.982;2023-07-02T05:31:52;96147.00;;;14.78;100.00
79663;BME280;69130;48.724;8.982;2023-07-02T05:34:23;96149.09;;;14.84;100.00
79663;BME280;69130;48.724;8.982;2023-07-02T05:36:48;96155.59;;;14.91;100.00
79663;BME280;69130;48.724;8.982;2023-07-02T05:39:13;96148.44;;;14.92;100.00
79663;BME280;69130;48.724;8.982;2023-07-02T05:41:46;96148.72;;;14.98;100.00
79663;BME280;69130;48.724;8.982;2023-07-02T05:44:19;96144.38;;;14.97;100.00
79663;BME280;69130;48.724;8.982;2023-07-02T05:46:44;96148.72;;;14.98;100.00
79663;BME280;69130;48.724;8.982;2023-07-02T05:49:13;96153.34;;;14.96;100.00
79663;BME280;69130;48.724;8.982;2023-07-02T05:51:38;96156.59;;;15.09;100.00
79663;BME280;69130;48.724;8.982;2023-07-02T05:54:04;96155.75;;;15.09;100.00
79663;BME280;69130;48.724;8.982;2023-07-02T05:56:29;96158.25;;;15.10;100.00
79663;BME280;69130;48.724;8.982;2023-07-02T05:58:54;96161.47;;;15.23;100.00
79663;BME280;69130;48.724;8.982;2023-07-02T06:01:20;96153.47;;;15.23;100.00
79663;BME280;69130;48.724;8.982;2023-07-02T06:03:48;96154.47;;;15.32;100.00
79663;BME280;69130;48.724;8.982;2023-07-02T06:06:14;96162.22;;;15.35;100.00
79663;BME280;69130;48.724;8.982;2023-07-02T06:08:39;96162.63;;;15.40;100.00
79663;BME280;69130;48.724;8.982;2023-07-02T06:11:05;96163.19;;;15.53;100.00
79663;BME280;69130;48.724;8.982;2023-07-02T06:13:30;96156.72;;;15.55;100.00
79663;BME280;69130;48.724;8.982;2023-07-02T06:15:58;96176.19;;;15.85;100.00
79663;BME280;69130;48.724;8.982;2023-07-02T06:18:37;96168.66;;;15.80;100.00
79663;BME280;69130;48.724;8.982;2023-07-02T06:21:05;96174.94;;;15.89;100.00
79663;BME280;69130;48.724;8.982;2023-07-02T06:23:40;96177.47;;;15.81;100.00
79663;BME280;69130;48.724;8.982;2023-07-02T06:26:05;96174.81;;;15.71;100.00
79663;BME280;69130;48.724;8.982;2023-07-02T06:28:33;96175.94;;;15.78;100.00
79663;BME280;69130;48.724;8.982;2023-07-02T06:31:04;96169.78;;;15.68;100.00
79663;BME280;69130;48.724;8.982;2023-07-02T06:33:32;96182.13;;;15.69;100.00
79663;BME280;69130;48.724;8.982;2023-07-02T06:36:08;96186.75;;;15.86;100.00
79663;BME280;69130;48.724;8.982;2023-07-02T06:38:34;96184.91;;;15.96;100.00
79663;BME280;69130;48.724;8.982;2023-07-02T06:41:03;96183.47;;;16.02;100.00
79663;BME280;69130;48.724;8.982;2023-07-02T06:44:07;96181.91;;;16.09;100.00
79663;BME280;69130;48.724;8.982;2023-07-02T06:46:35;96188.66;;;16.03;100.00
79663;BME280;69130;48.724;8.982;2023-07-02T06:49:04;96191.34;;;16.03;100.00
79663;BME280;69130;48.724;8.982;2023-07-02T06:51:36;96191.34;;;16.03;100.00
79663;BME280;69130;48.724;8.982;2023-07-02T06:54:12;96189.63;;;16.12;100.00
79663;BME280;69130;48.724;8.982;2023-07-02T06:56:49;96188.59;;;16.22;100.00
79663;BME280;69130;48.724;8.982;2023-07-02T06:59:23;96196.03;;;16.28;100.00
79663;BME280;69130;48.724;8.982;2023-07-02T07:01:52;96194.88;;;16.40;100.00
79663;BME280;69130;48.724;8.982;2023-07-02T07:04:21;96195.97;;;16.57;100.00
79663;BME280;69130;48.724;8.982;2023-07-02T07:07:09;96193.63;;;16.72;100.00
79663;BME280;69130;48.724;8.982;2023-07-02T07:09:49;96193.31;;;16.47;100.00
79663;BME280;69130;48.724;8.982;2023-07-02T07:12:26;96195.03;;;16.76;100.00
79663;BME280;69130;48.724;8.982;2023-07-02T07:14:54;96205.75;;;16.66;100.00
79663;BME280;69130;48.724;8.982;2023-07-02T07:17:20;96205.13;;;16.82;100.00
79663;BME280;69130;48.724;8.982;2023-07-02T07:19:45;96203.13;;;16.84;100.00
79663;BME280;69130;48.724;8.982;2023-07-02T07:22:10;96197.97;;;17.00;100.00
79663;BME280;69130;48.724;8.982;2023-07-02T07:24:36;96208.84;;;16.98;100.00
79663;BME280;69130;48.724;8.982;2023-07-02T07:27:01;96203.78;;;17.13;100.00
79663;BME280;69130;48.724;8.982;2023-07-02T07:29:27;96195.66;;;17.14;100.00
79663;BME280;69130;48.724;8.982;2023-07-02T07:31:52;96192.31;;;17.03;100.00
79663;BME280;69130;48.724;8.982;2023-07-02T07:34:17;96205.94;;;17.09;100.00
79663;BME280;69130;48.724;8.982;2023-07-02T07:36:43;96206.16;;;16.98;100.00
79663;BME280;69130;48.724;8.982;2023-07-02T07:39:08;96204.03;;;17.19;100.00
79663;BME280;69130;48.724;8.982;2023-07-02T07:41:33;96202.00;;;17.31;100.00
79663;BME280;69130;48.724;8.982;2023-07-02T07:43:59;96211.19;;;17.46;100.00
79663;BME280;69130;48.724;8.982;2023-07-02T07:46:25;96205.50;;;17.31;100.00
79663;BME280;69130;48.724;8.982;2023-07-02T07:48:50;96212.00;;;17.29;100.00
79663;BME280;69130;48.724;8.982;2023-07-02T07:51:15;96219.56;;;17.33;100.00
79663;BME280;69130;48.724;8.982;2023-07-02T07:53:41;96215.69;;;17.45;100.00
79663;BME280;69130;48.724;8.982;2023-07-02T07:56:06;96230.28;;;17.33;100.00
79663;BME280;69130;48.724;8.982;2023-07-02T07:58:31;96225.69;;;17.43;100.00
79663;BME280;69130;48.724;8.982;2023-07-02T08:00:57;96218.81;;;17.41;100.00
79663;BME280;69130;48.724;8.982;2023-07-02T08:03:23;96211.75;;;18.10;100.00
79663;BME280;69130;48.724;8.982;2023-07-02T08:05:48;96206.69;;;18.07;100.00
79663;BME280;69130;48.724;8.982;2023-07-02T08:08:13;96212.84;;;18.00;100.00
79663;BME280;69130;48.724;8.982;2023-07-02T08:10:39;96204.50;;;18.03;100.00
79663;BME280;69130;48.724;8.982;2023-07-02T08:13:04;96208.00;;;18.47;100.00
79663;BME280;69130;48.724;8.982;2023-07-02T08:15:30;96203.16;;;18.50;100.00
79663;BME280;69130;48.724;8.982;2023-07-02T08:17:55;96208.00;;;18.80;100.00
79663;BME280;69130;48.724;8.982;2023-07-02T08:20:23;96205.38;;;18.96;100.00
79663;BME280;69130;48.724;8.982;2023-07-02T08:22:48;96203.09;;;19.09;100.00
79663;BME280;69130;48.724;8.982;2023-07-02T08:25:16;96199.06;;;19.95;100.00
79663;BME280;69130;48.724;8.982;2023-07-02T08:27:42;96209.50;;;19.25;100.00
79663;BME280;69130;48.724;8.982;2023-07-02T08:30:08;96209.81;;;19.13;100.00
79663;BME280;69130;48.724;8.982;2023-07-02T08:32:33;96208.78;;;19.06;100.00
79663;BME280;69130;48.724;8.982;2023-07-02T08:34:59;96213.25;;;18.90;100.00
79663;BME280;69130;48.724;8.982;2023-07-02T08:37:24;96215.81;;;19.49;100.00
79663;BME280;69130;48.724;8.982;2023-07-02T08:39:49;96216.09;;;19.38;100.00
79663;BME280;69130;48.724;8.982;2023-07-02T08:42:15;96217.00;;;19.87;100.00
79663;BME280;69130;48.724;8.982;2023-07-02T08:44:41;96212.41;;;20.68;100.00
79663;BME280;69130;48.724;8.982;2023-07-02T08:47:07;96220.88;;;20.96;100.00
79663;BME280;69130;48.724;8.982;2023-07-02T08:49:33;96215.78;;;21.47;100.00
79663;BME280;69130;48.724;8.982;2023-07-02T08:51:58;96226.38;;;22.02;100.00
79663;BME280;69130;48.724;8.982;2023-07-02T08:54:24;96216.03;;;22.14;100.00
79663;BME280;69130;48.724;8.982;2023-07-02T08:56:49;96208.75;;;22.14;100.00
79663;BME280;69130;48.724;8.982;2023-07-02T08:59:14;96209.59;;;22.37;100.00
79663;BME280;69130;48.724;8.982;2023-07-02T09:01:46;96212.38;;;22.44;100.00
79663;BME280;69130;48.724;8.982;2023-07-02T09:06:45;96207.56;;;22.54;100.00
79663;BME280;69130;48.724;8.982;2023-07-02T09:09:10;96207.91;;;22.36;100.00
79663;BME280;69130;48.724;8.982;2023-07-02T09:11:46;96210.84;;;21.90;100.00
79663;BME280;69130;48.724;8.982;2023-07-02T09:14:26;96205.53;;;21.96;100.00
79663;BME280;69130;48.724;8.982;2023-07-02T09:17:05;96207.81;;;22.44;100.00
79663;BME280;69130;48.724;8.982;2023-07-02T09:19:32;96209.66;;;22.29;100.00
79663;BME280;69130;48.724;8.982;2023-07-02T09:21:59;96201.91;;;21.89;100.00
79663;BME280;69130;48.724;8.982;2023-07-02T09:24:29;96213.47;;;21.98;100.00
79663;BME280;69130;48.724;8.982;2023-07-02T09:26:59;96213.03;;;21.33;100.00
79663;BME280;69130;48.724;8.982;2023-07-02T09:29:32;96206.59;;;20.40;100.00
79663;BME280;69130;48.724;8.982;2023-07-02T09:32:05;96217.84;;;20.60;100.00
79663;BME280;69130;48.724;8.982;2023-07-02T09:34:35;96216.53;;;21.03;100.00
79663;BME280;69130;48.724;8.982;2023-07-02T09:37:02;96217.53;;;20.94;100.00
79663;BME280;69130;48.724;8.982;2023-07-02T09:39:29;96210.44;;;20.54;100.00
79663;BME280;69130;48.724;8.982;2023-07-02T09:41:57;96207.69;;;20.70;100.00
79663;BME280;69130;48.724;8.982;2023-07-02T09:44:30;96203.38;;;20.53;100.00
79663;BME280;69130;48.724;8.982;2023-07-02T09:47:06;96213.66;;;20.25;100.00
79663;BME280;69130;48.724;8.982;2023-07-02T09:49:41;96209.81;;;20.28;100.00
79663;BME280;69130;48.724;8.982;2023-07-02T09:52:09;96206.59;;;19.84;100.00
79663;BME280;69130;48.724;8.982;2023-07-02T09:54:35;96207.63;;;20.23;100.00
79663;BME280;69130;48.724;8.982;2023-07-02T09:57:02;96211.78;;;21.13;100.00
79663;BME280;69130;48.724;8.982;2023-07-02T09:59:28;96199.59;;;21.55;100.00
79663;BME280;69130;48.724;8.982;2023-07-02T10:01:54;96207.56;;;22.54;100.00
79663;BME280;69130;48.724;8.982;2023-07-02T10:04:20;96212.94;;;21.71;100.00
79663;BME280;69130;48.724;8.982;2023-07-02T10:06:58;96208.75;;;21.08;100.00
79663;BME280;69130;48.724;8.982;2023-07-02T10:12:00;96203.88;;;20.56;100.00
79663;BME280;69130;48.724;8.982;2023-07-02T10:14:26;96207.56;;;20.63;100.00
79663;BME280;69130;48.724;8.982;2023-07-02T10:16:55;96204.22;;;21.39;100.00
79663;BME280;69130;48.724;8.982;2023-07-02T10:19:21;96209.94;;;21.97;100.00
79663;BME280;69130;48.724;8.982;2023-07-02T10:22:00;96209.97;;;21.36;100.00
79663;BME280;69130;48.724;8.982;2023-07-02T10:24:26;96205.16;;;21.54;100.00
79663;BME280;69130;48.724;8.982;2023-07-02T10:26:56;96208.00;;;21.60;100.00
79663;BME280;69130;48.724;8.982;2023-07-02T10:29:23;96211.56;;;21.22;100.00
79663;BME280;69130;48.724;8.982;2023-07-02T10:31:54;96204.16;;;21.24;100.00
79663;BME280;69130;48.724;8.982;2023-07-02T10:34:33;96210.94;;;21.43;100.00
79663;BME280;69130;48.724;8.982;2023-07-02T10:37:03;96198.50;;;21.95;100.00
79663;BME280;69130;48.724;8.982;2023-07-02T10:39:30;96209.84;;;21.60;100.00
79663;BME280;69130;48.724;8.982;2023-07-02T10:42:06;96205.47;;;22.04;100.00
79663;BME280;69130;48.724;8.982;2023-07-02T10:44:33;96208.94;;;22.35;100.00
79663;BME280;69130;48.724;8.982;2023-07-02T10:46:58;96197.81;;;22.97;100.00
79663;BME280;69130;48.724;8.982;2023-07-02T10:49:31;96201.47;;;23.04;100.00
79663;BME280;69130;48.724;8.982;2023-07-02T10:52:01;96204.28;;;22.44;100.00
79663;BME280;69130;48.724;8.982;2023-07-02T10:54:38;96201.38;;;22.68;100.00
79663;BME280;69130;48.724;8.982;2023-07-02T10:57:05;96205.91;;;22.97;100.00
79663;BME280;69130;48.724;8.982;2023-07-02T10:59:30;96197.09;;;22.74;100.00
79663;BME280;69130;48.724;8.982;2023-07-02T11:01:56;96197.00;;;22.82;100.00
79663;BME280;69130;48.724;8.982;2023-07-02T11:04:24;96209.00;;;23.08;100.00
79663;BME280;69130;48.724;8.982;2023-07-02T11:06:49;96201.34;;;23.12;100.00
79663;BME280;69130;48.724;8.982;2023-07-02T11:09:17;96207.63;;;23.48;100.00
79663;BME280;69130;48.724;8.982;2023-07-02T11:11:52;96199.66;;;23.25;100.00
79663;BME280;69130;48.724;8.982;2023-07-02T11:14:33;96201.19;;;24.27;100.00
79663;BME280;69130;48.724;8.982;2023-07-02T11:17:03;96204.09;;;24.25;100.00
79663;BME280;69130;48.724;8.982;2023-07-02T11:19:31;96197.00;;;23.82;100.00
79663;BME280;69130;48.724;8.982;2023-07-02T11:21:58;96196.72;;;23.56;100.00
79663;BME280;69130;48.724;8.982;2023-07-02T11:24:33;96188.63;;;23.06;100.00
79663;BME280;69130;48.724;8.982;2023-07-02T11:27:00;96204.09;;;22.08;100.00
79663;BME280;69130;48.724;8.982;2023-07-02T11:29:27;96203.84;;;22.55;100.00
79663;BME280;69130;48.724;8.982;2023-07-02T11:31:53;96196.91;;;22.90;100.00
79663;BME280;69130;48.724;8.982;2023-07-02T11:34:21;96174.56;;;23.46;100.00
79663;BME280;69130;48.724;8.982;2023-07-02T11:36:47;96195.75;;;23.42;100.00
79663;BME280;69130;48.724;8.982;2023-07-02T11:39:13;96193.91;;;23.64;100.00
79663;BME280;69130;48.724;8.982;2023-07-02T11:41:42;96192.50;;;23.18;100.00
79663;BME280;69130;48.724;8.982;2023-07-02T11:44:07;96187.88;;;23.12;100.00
79663;BME280;69130;48.724;8.982;2023-07-02T11:46:33;96183.13;;;23.14;100.00
79663;BME280;69130;48.724;8.982;2023-07-02T11:49:03;96183.88;;;23.08;100.00
79663;BME280;69130;48.724;8.982;2023-07-02T11:51:35;96185.63;;;23.66;100.00
79663;BME280;69130;48.724;8.982;2023-07-02T11:54:02;96176.94;;;23.70;100.00
79663;BME280;69130;48.724;8.982;2023-07-02T11:56:28;96193.81;;;23.93;100.00
79663;BME280;69130;48.724;8.982;2023-07-02T11:58:53;96188.81;;;24.39;100.00
79663;BME280;69130;48.724;8.982;2023-07-02T12:01:19;96181.00;;;24.51;100.00
79663;BME280;69130;48.724;8.982;2023-07-02T12:03:44;96195.97;;;25.08;100.00
79663;BME280;69130;48.724;8.982;2023-07-02T12:06:10;96190.75;;;25.07;100.00
79663;BME280;69130;48.724;8.982;2023-07-02T12:08:35;96175.59;;;24.78;100.00
79663;BME280;69130;48.724;8.982;2023-07-02T12:11:01;96176.69;;;24.29;100.00
79663;BME280;69130;48.724;8.982;2023-07-02T12:13:26;96182.09;;;24.29;100.00
79663;BME280;69130;48.724;8.982;2023-07-02T12:15:51;96176.69;;;23.86;100.00
79663;BME280;69130;48.724;8.982;2023-07-02T12:18:17;96179.59;;;23.64;100.00
79663;BME280;69130;48.724;8.982;2023-07-02T12:20:42;96171.34;;;23.93;100.00
79663;BME280;69130;48.724;8.982;2023-07-02T12:23:08;96183.25;;;23.77;100.00
79663;BME280;69130;48.724;8.982;2023-07-02T12:25:34;96179.88;;;24.11;100.00
79663;BME280;69130;48.724;8.982;2023-07-02T12:28:04;96190.53;;;24.19;100.00
79663;BME280;69130;48.724;8.982;2023-07-02T12:30:30;96173.84;;;24.64;100.00
79663;BME280;69130;48.724;8.982;2023-07-02T12:32:55;96167.44;;;24.16;100.00
79663;BME280;69130;48.724;8.982;2023-07-02T12:35:21;96172.81;;;24.99;100.00
79663;BME280;69130;48.724;8.982;2023-07-02T12:37:49;96176.47;;;25.26;100.00
79663;BME280;69130;48.724;8.982;2023-07-02T12:40:15;96166.88;;;25.77;100.00
79663;BME280;69130;48.724;8.982;2023-07-02T12:42:42;96172.97;;;25.92;100.00
79663;BME280;69130;48.724;8.982;2023-07-02T12:45:08;96169.13;;;25.67;100.00
79663;BME280;69130;48.724;8.982;2023-07-02T12:47:34;96170.22;;;25.86;100.00
79663;BME280;69130;48.724;8.982;2023-07-02T12:50:00;96165.06;;;26.11;100.00
79663;BME280;69130;48.724;8.982;2023-07-02T12:52:26;96176.47;;;25.80;100.00
79663;BME280;69130;48.724;8.982;2023-07-02T12:54:51;96175.88;;;25.98;100.00
79663;BME280;69130;48.724;8.982;2023-07-02T12:57:17;96170.88;;;25.94;100.00